Time;durP1;ratioP1;P1;durP2;ratioP2;P2;SDS_P1;SDS_P2;PMS_P1;PMS_P2;Temp;Humidity;BMP_temperature;BMP_pressure;BME280_temperature;BME280_humidity;BME280_pressure;Samples;Min_cycle;Max_cycle;Signal;HPM_P1;HPM_P2
2023/07/05 00:01:37;;;;;;;4.47;2.50;;;;;;;;;;5032046;28;20931;-66
2023/07/05 00:04:03;;;;;;;3.30;3.10;;;;;;;;;;5032328;28;20446;-66
2023/07/05 00:06:29;;;;;;;5.40;3.37;;;;;;;;;;5032513;28;20423;-66
2023/07/05 00:08:55;;;;;;;3.00;2.87;;;;;;;;;;5031937;28;20953;-66
2023/07/05 00:11:21;;;;;;;6.73;3.10;;;;;;;;;;5032299;28;20821;-66
2023/07/05 00:13:50;;;;;;;5.20;2.73;;;;;;;;;;5032317;28;20411;-66
2023/07/05 00:16:16;;;;;;;3.40;3.20;;;;;;;;;;5032270;28;20928;-66
2023/07/05 00:18:44;;;;;;;3.70;3.40;;;;;;;;;;5032237;28;20519;-66
2023/07/05 00:21:11;;;;;;;3.47;2.93;;;;;;;;;;5032168;28;20489;-66
2023/07/05 00:23:37;;;;;;;5.67;3.20;;;;;;;;;;5032287;28;20408;-66
2023/07/05 00:26:04;;;;;;;3.23;2.90;;;;;;;;;;5030747;28;20720;-66
2023/07/05 00:28:33;;;;;;;3.50;3.30;;;;;;;;;;5032196;28;20476;-66
2023/07/05 00:30:59;;;;;;;2.90;2.70;;;;;;;;;;5032043;28;20481;-66
2023/07/05 00:33:25;;;;;;;2.83;2.60;;;;;;;;;;5031963;28;20977;-66
2023/07/05 00:35:54;;;;;;;3.20;2.90;;;;;;;;;;5032088;28;20406;-66
2023/07/05 00:38:23;;;;;;;2.73;2.27;;;;;;;;;;5033263;28;21100;-66
2023/07/05 00:40:52;;;;;;;2.27;2.23;;;;;;;;;;5036112;28;20465;-66
2023/07/05 00:43:21;;;;;;;2.70;2.60;;;;;;;;;;5035998;28;20856;-66
2023/07/05 00:45:56;;;;;;;2.73;2.63;;;;;;;;;;5034855;28;20438;-66
2023/07/05 00:48:25;;;;;;;3.93;2.80;;;;;;;;;;5035835;28;20445;-66
2023/07/05 00:50:55;;;;;;;6.53;2.30;;;;;;;;;;5036004;28;20462;-66
2023/07/05 00:53:21;;;;;;;3.23;3.00;;;;;;;;;;5036205;28;20932;-66
2023/07/05 00:55:49;;;;;;;2.73;2.30;;;;;;;;;;5035717;28;20864;-66
2023/07/05 00:58:18;;;;;;;3.03;2.77;;;;;;;;;;5035789;28;20470;-66
2023/07/05 01:00:44;;;;;;;3.10;2.90;;;;;;;;;;5035786;28;20442;-66
2023/07/05 01:03:13;;;;;;;2.87;2.77;;;;;;;;;;5034177;28;20433;-66
2023/07/05 01:05:39;;;;;;;3.07;2.97;;;;;;;;;;5035746;28;20545;-66
2023/07/05 01:08:05;;;;;;;2.70;2.43;;;;;;;;;;5035281;28;20963;-66
2023/07/05 01:10:31;;;;;;;4.67;2.80;;;;;;;;;;5035578;28;20458;-66
2023/07/05 01:13:06;;;;;;;3.17;2.23;;;;;;;;;;5035709;28;20457;-66
2023/07/05 01:15:32;;;;;;;2.83;2.43;;;;;;;;;;5035428;28;20840;-65
2023/07/05 01:18:03;;;;;;;2.53;2.30;;;;;;;;;;5035533;28;20454;-65
2023/07/05 01:20:29;;;;;;;2.57;2.33;;;;;;;;;;5035326;28;20417;-65
2023/07/05 01:23:06;;;;;;;3.80;2.23;;;;;;;;;;5035324;28;20445;-65
2023/07/05 01:25:38;;;;;;;2.43;2.33;;;;;;;;;;5035308;28;20430;-65
2023/07/05 01:28:16;;;;;;;6.13;2.50;;;;;;;;;;5035513;28;20457;-65
2023/07/05 01:30:51;;;;;;;2.70;2.60;;;;;;;;;;5035179;28;20460;-65
2023/07/05 01:33:23;;;;;;;2.30;2.30;;;;;;;;;;5035212;28;20407;-65
2023/07/05 01:35:51;;;;;;;2.47;2.37;;;;;;;;;;5035252;28;20935;-65
2023/07/05 01:38:20;;;;;;;2.60;2.00;;;;;;;;;;5034989;28;20890;-66
2023/07/05 01:40:57;;;;;;;2.50;2.30;;;;;;;;;;5035340;28;20562;-66
2023/07/05 01:43:28;;;;;;;3.37;2.40;;;;;;;;;;5034995;28;20743;-66
2023/07/05 01:46:04;;;;;;;2.87;2.60;;;;;;;;;;5035159;28;20493;-65
2023/07/05 01:48:47;;;;;;;7.97;2.27;;;;;;;;;;5034988;28;20482;-65
2023/07/05 01:51:27;;;;;;;1.70;1.70;;;;;;;;;;5033474;28;20478;-65
2023/07/05 01:53:53;;;;;;;2.27;2.17;;;;;;;;;;5034715;28;20411;-65
2023/07/05 01:56:21;;;;;;;2.10;2.10;;;;;;;;;;5034837;28;20432;-65
2023/07/05 01:58:52;;;;;;;2.40;2.20;;;;;;;;;;5035069;28;20802;-65
2023/07/05 02:01:23;;;;;;;5.53;2.20;;;;;;;;;;5034818;28;20525;-65
2023/07/05 02:03:49;;;;;;;2.00;1.77;;;;;;;;;;5034523;28;20432;-65
2023/07/05 02:06:16;;;;;;;2.50;2.30;;;;;;;;;;5033189;28;20542;-65
2023/07/05 02:08:43;;;;;;;2.83;2.10;;;;;;;;;;5034575;28;20438;-65
2023/07/05 02:11:09;;;;;;;6.73;2.70;;;;;;;;;;5034440;28;20469;-65
2023/07/05 02:13:35;;;;;;;2.60;2.50;;;;;;;;;;5033138;28;20509;-65
2023/07/05 02:16:01;;;;;;;2.50;2.40;;;;;;;;;;5034790;28;20776;-65
2023/07/05 02:18:29;;;;;;;2.50;2.17;;;;;;;;;;5034382;28;20407;-65
2023/07/05 02:20:55;;;;;;;2.93;2.50;;;;;;;;;;5034651;28;20422;-65
2023/07/05 02:23:23;;;;;;;6.53;2.40;;;;;;;;;;5034257;28;20424;-65
2023/07/05 02:25:52;;;;;;;3.03;1.90;;;;;;;;;;5034158;28;20539;-65
2023/07/05 02:28:18;;;;;;;2.23;2.13;;;;;;;;;;5034304;28;20895;-66
2023/07/05 02:30:44;;;;;;;2.13;2.03;;;;;;;;;;5033777;28;20478;-66
2023/07/05 02:33:10;;;;;;;2.17;2.07;;;;;;;;;;5034118;28;20744;-66
2023/07/05 02:35:42;;;;;;;2.20;2.10;;;;;;;;;;5033986;28;20412;-66
2023/07/05 02:38:10;;;;;;;2.00;1.90;;;;;;;;;;5034120;28;20452;-66
2023/07/05 02:40:36;;;;;;;2.00;1.90;;;;;;;;;;5033880;28;20443;-66
2023/07/05 02:43:02;;;;;;;2.03;1.90;;;;;;;;;;5033846;28;20536;-66
2023/07/05 02:45:29;;;;;;;2.77;2.57;;;;;;;;;;5033977;28;20412;-66
2023/07/05 02:47:57;;;;;;;2.77;2.53;;;;;;;;;;5033522;28;20441;-66
2023/07/05 02:50:23;;;;;;;2.10;2.10;;;;;;;;;;5033371;28;20471;-62
2023/07/05 02:52:49;;;;;;;2.00;1.90;;;;;;;;;;5033195;28;20426;-62
2023/07/05 02:55:15;;;;;;;1.73;1.73;;;;;;;;;;5033358;28;20415;-62
2023/07/05 02:57:43;;;;;;;2.23;2.13;;;;;;;;;;5033886;28;20521;-62
2023/07/05 03:00:13;;;;;;;2.17;2.07;;;;;;;;;;5033151;28;20414;-62
2023/07/05 03:02:39;;;;;;;2.37;2.20;;;;;;;;;;5033244;28;20849;-62
2023/07/05 03:05:08;;;;;;;7.87;2.80;;;;;;;;;;5032380;28;20423;-62
2023/07/05 03:07:34;;;;;;;1.90;1.80;;;;;;;;;;5031801;28;20437;-62
2023/07/05 03:10:00;;;;;;;2.30;1.87;;;;;;;;;;5032872;28;20564;-62
2023/07/05 03:12:26;;;;;;;2.77;2.27;;;;;;;;;;5033208;28;20917;-62
2023/07/05 03:14:52;;;;;;;2.23;2.13;;;;;;;;;;5033415;28;20450;-62
2023/07/05 03:17:18;;;;;;;6.83;2.27;;;;;;;;;;5033256;28;20461;-62
2023/07/05 03:19:44;;;;;;;2.00;1.97;;;;;;;;;;5033058;28;20416;-62
2023/07/05 03:22:10;;;;;;;2.30;2.20;;;;;;;;;;5033056;28;20469;-62
2023/07/05 03:24:36;;;;;;;2.63;2.40;;;;;;;;;;5033138;28;20916;-62
2023/07/05 03:27:02;;;;;;;1.80;1.70;;;;;;;;;;5033037;28;20403;-62
2023/07/05 03:29:28;;;;;;;2.83;2.60;;;;;;;;;;5033106;28;20408;-62
2023/07/05 03:31:54;;;;;;;5.03;2.57;;;;;;;;;;5032529;28;20469;-62
2023/07/05 03:34:23;;;;;;;2.87;2.27;;;;;;;;;;5032534;28;20783;-62
2023/07/05 03:36:48;;;;;;;2.57;2.47;;;;;;;;;;5032433;28;20984;-62
2023/07/05 03:39:17;;;;;;;5.40;2.40;;;;;;;;;;5033222;28;20399;-62
2023/07/05 03:41:43;;;;;;;2.20;2.20;;;;;;;;;;5032759;28;20528;-62
2023/07/05 03:44:11;;;;;;;2.60;2.40;;;;;;;;;;5032613;28;20457;-62
2023/07/05 03:46:39;;;;;;;2.60;2.10;;;;;;;;;;5032676;28;20980;-62
2023/07/05 03:49:05;;;;;;;2.77;2.50;;;;;;;;;;5032687;28;20560;-62
2023/07/05 03:51:34;;;;;;;2.03;1.93;;;;;;;;;;5031329;28;20548;-62
2023/07/05 03:54:00;;;;;;;2.60;2.60;;;;;;;;;;5032491;28;20439;-62
2023/07/05 03:56:29;;;;;;;3.57;2.37;;;;;;;;;;5032421;28;20923;-62
2023/07/05 03:58:55;;;;;;;3.93;2.67;;;;;;;;;;5032175;28;20788;-62
2023/07/05 04:01:24;;;;;;;2.67;2.13;;;;;;;;;;5032777;28;20537;-62
2023/07/05 04:03:52;;;;;;;2.30;2.20;;;;;;;;;;5032290;28;20484;-62
2023/07/05 04:06:18;;;;;;;3.27;3.00;;;;;;;;;;5032277;28;20423;-62
2023/07/05 04:08:44;;;;;;;3.30;2.93;;;;;;;;;;5032227;28;20427;-62
2023/07/05 04:11:11;;;;;;;3.10;2.60;;;;;;;;;;5032257;28;20474;-62
2023/07/05 04:13:39;;;;;;;3.13;2.23;;;;;;;;;;5031610;28;20407;-62
2023/07/05 04:16:10;;;;;;;3.00;2.90;;;;;;;;;;5032081;28;20415;-62
2023/07/05 04:18:36;;;;;;;4.07;2.33;;;;;;;;;;5032409;28;20423;-62
2023/07/05 04:21:02;;;;;;;14.20;2.53;;;;;;;;;;5031803;28;20451;-62
2023/07/05 04:23:28;;;;;;;2.60;2.40;;;;;;;;;;5031785;28;20415;-62
2023/07/05 04:26:01;;;;;;;2.40;2.20;;;;;;;;;;5032315;28;20776;-62
2023/07/05 04:28:27;;;;;;;4.50;2.80;;;;;;;;;;5031964;28;20416;-62
2023/07/05 04:30:56;;;;;;;2.60;2.50;;;;;;;;;;5032059;28;20459;-62
2023/07/05 04:33:22;;;;;;;2.37;2.27;;;;;;;;;;5031944;28;20919;-62
2023/07/05 04:35:49;;;;;;;3.27;3.07;;;;;;;;;;5032017;28;20420;-62
2023/07/05 04:38:17;;;;;;;3.03;2.40;;;;;;;;;;5031846;28;20429;-62
2023/07/05 04:40:43;;;;;;;5.80;2.60;;;;;;;;;;5031816;28;20413;-62
2023/07/05 04:43:10;;;;;;;2.80;2.60;;;;;;;;;;5032023;28;20496;-62
2023/07/05 04:45:36;;;;;;;2.37;2.27;;;;;;;;;;5031507;28;20457;-62
2023/07/05 04:48:05;;;;;;;3.17;2.57;;;;;;;;;;5031790;28;20911;-62
2023/07/05 04:50:31;;;;;;;4.10;2.60;;;;;;;;;;5031749;28;20804;-62
2023/07/05 04:52:57;;;;;;;7.53;2.80;;;;;;;;;;5032057;28;20484;-62
2023/07/05 04:55:23;;;;;;;3.43;3.33;;;;;;;;;;5032091;28;20848;-62
2023/07/05 04:57:49;;;;;;;4.83;2.47;;;;;;;;;;5031912;28;20417;-62
2023/07/05 05:00:16;;;;;;;2.67;2.57;;;;;;;;;;5030615;28;20539;-62
2023/07/05 05:02:42;;;;;;;3.10;3.00;;;;;;;;;;5032158;28;20460;-62
2023/07/05 05:05:08;;;;;;;3.10;2.80;;;;;;;;;;5031656;28;20414;-62
2023/07/05 05:07:34;;;;;;;3.50;3.30;;;;;;;;;;5031770;28;20435;-62
2023/07/05 05:10:01;;;;;;;2.67;2.57;;;;;;;;;;5031503;28;20728;-62
2023/07/05 05:12:27;;;;;;;2.87;2.50;;;;;;;;;;5031430;28;20938;-62
2023/07/05 05:14:53;;;;;;;3.83;2.67;;;;;;;;;;5030564;28;20426;-62
2023/07/05 05:17:19;;;;;;;2.43;2.20;;;;;;;;;;5031497;28;20912;-62
2023/07/05 05:19:45;;;;;;;2.47;2.37;;;;;;;;;;5031617;28;20424;-62
2023/07/05 05:22:13;;;;;;;2.10;2.10;;;;;;;;;;5031743;28;20444;-62
2023/07/05 05:24:39;;;;;;;3.27;2.53;;;;;;;;;;5033070;28;20453;-62
2023/07/05 05:27:05;;;;;;;2.60;2.47;;;;;;;;;;5035225;28;20404;-62
2023/07/05 05:29:32;;;;;;;3.53;2.10;;;;;;;;;;5035114;28;20518;-62
2023/07/05 05:31:58;;;;;;;2.40;2.40;;;;;;;;;;5035183;28;20471;-62
2023/07/05 05:34:29;;;;;;;2.97;2.33;;;;;;;;;;5035127;28;20420;-62
2023/07/05 05:36:58;;;;;;;2.47;2.30;;;;;;;;;;5034994;28;20425;-62
2023/07/05 05:39:24;;;;;;;2.67;2.67;;;;;;;;;;5035055;28;20486;-62
2023/07/05 05:41:53;;;;;;;2.07;1.93;;;;;;;;;;5034731;28;20501;-62
2023/07/05 05:44:19;;;;;;;4.20;2.20;;;;;;;;;;5034918;28;20442;-62
2023/07/05 05:46:45;;;;;;;2.00;2.00;;;;;;;;;;5034796;28;20503;-62
2023/07/05 05:49:11;;;;;;;2.93;2.50;;;;;;;;;;5034960;28;20423;-62
2023/07/05 05:51:37;;;;;;;2.20;2.10;;;;;;;;;;5034182;28;20461;-62
2023/07/05 05:54:05;;;;;;;3.30;2.37;;;;;;;;;;5034933;28;20844;-62
2023/07/05 05:56:31;;;;;;;2.80;2.20;;;;;;;;;;5034643;28;20415;-62
2023/07/05 05:58:59;;;;;;;2.43;2.20;;;;;;;;;;5034832;28;20524;-62
2023/07/05 06:01:25;;;;;;;4.77;2.00;;;;;;;;;;5034063;28;20857;-62
2023/07/05 06:03:54;;;;;;;2.10;2.10;;;;;;;;;;5034204;28;20444;-62
2023/07/05 06:06:20;;;;;;;2.10;2.00;;;;;;;;;;5034350;28;20416;-62
2023/07/05 06:08:46;;;;;;;1.93;1.83;;;;;;;;;;5033733;28;20957;-62
2023/07/05 06:11:11;;;;;;;1.90;1.80;;;;;;;;;;5033843;28;20472;-62
2023/07/05 06:13:37;;;;;;;2.27;2.20;;;;;;;;;;5033662;28;20439;-62
2023/07/05 06:16:04;;;;;;;2.17;2.17;;;;;;;;;;5033873;28;20794;-62
2023/07/05 06:18:30;;;;;;;2.67;2.50;;;;;;;;;;5034180;28;20441;-61
2023/07/05 06:20:56;;;;;;;4.30;3.03;;;;;;;;;;5034178;28;20416;-62
2023/07/05 06:23:25;;;;;;;2.40;2.30;;;;;;;;;;5034313;28;20441;-62
2023/07/05 06:25:51;;;;;;;2.80;2.60;;;;;;;;;;5034044;28;20450;-62
2023/07/05 06:28:17;;;;;;;5.63;3.00;;;;;;;;;;5034088;28;20817;-62
2023/07/05 06:30:44;;;;;;;4.63;3.10;;;;;;;;;;5034232;28;20473;-62
2023/07/05 06:33:10;;;;;;;3.23;3.10;;;;;;;;;;5034230;28;20435;-62
2023/07/05 06:35:36;;;;;;;3.27;3.17;;;;;;;;;;5033586;28;20426;-62
2023/07/05 06:38:02;;;;;;;2.87;2.67;;;;;;;;;;5032798;28;20791;-62
2023/07/05 06:40:29;;;;;;;3.53;3.23;;;;;;;;;;5033807;28;20928;-62
2023/07/05 06:42:57;;;;;;;3.63;3.33;;;;;;;;;;5033778;28;20428;-61
2023/07/05 06:45:23;;;;;;;3.50;3.00;;;;;;;;;;5033535;28;20421;-61
2023/07/05 06:47:50;;;;;;;3.07;2.87;;;;;;;;;;5033751;28;20410;-62
2023/07/05 06:50:21;;;;;;;13.63;3.70;;;;;;;;;;5033459;28;20434;-62
2023/07/05 06:52:47;;;;;;;2.60;2.60;;;;;;;;;;5033441;28;20413;-62
2023/07/05 06:55:13;;;;;;;10.00;3.30;;;;;;;;;;5033658;28;20428;-61
2023/07/05 06:57:39;;;;;;;3.27;3.07;;;;;;;;;;5033534;28;20428;-61
2023/07/05 07:00:11;;;;;;;3.53;3.20;;;;;;;;;;5033146;28;20469;-61
2023/07/05 07:02:37;;;;;;;3.40;3.30;;;;;;;;;;5033024;28;20446;-61
2023/07/05 07:05:03;;;;;;;4.00;3.70;;;;;;;;;;5032929;28;20599;-61
2023/07/05 07:07:29;;;;;;;2.83;2.73;;;;;;;;;;5031040;28;20498;-61
2023/07/05 07:09:55;;;;;;;2.83;2.63;;;;;;;;;;5031321;28;20436;-61
2023/07/05 07:12:21;;;;;;;2.73;2.63;;;;;;;;;;5032524;28;20950;-61
2023/07/05 07:14:47;;;;;;;3.80;2.53;;;;;;;;;;5032781;28;20435;-62
2023/07/05 07:17:13;;;;;;;4.40;3.50;;;;;;;;;;5032460;28;20476;-62
2023/07/05 07:19:39;;;;;;;3.23;3.03;;;;;;;;;;5033633;28;20883;-62
2023/07/05 07:22:07;;;;;;;3.33;2.70;;;;;;;;;;5033378;28;20428;-61
2023/07/05 07:24:33;;;;;;;2.63;2.53;;;;;;;;;;5033598;28;20418;-61
2023/07/05 07:26:59;;;;;;;2.57;2.50;;;;;;;;;;5033332;28;20779;-62
2023/07/05 07:29:25;;;;;;;2.50;2.40;;;;;;;;;;5033309;28;20418;-62
2023/07/05 07:31:51;;;;;;;2.40;2.30;;;;;;;;;;5033382;28;20500;-61
2023/07/05 07:34:17;;;;;;;2.77;2.60;;;;;;;;;;5033414;28;20447;-62
2023/07/05 07:36:45;;;;;;;6.63;2.10;;;;;;;;;;5033441;28;20408;-61
2023/07/05 07:39:11;;;;;;;6.40;5.93;;;;;;;;;;5033511;28;20848;-62
2023/07/05 07:41:37;;;;;;;2.30;2.30;;;;;;;;;;5033252;28;20425;-62
2023/07/05 07:44:07;;;;;;;2.33;2.20;;;;;;;;;;5032966;28;20457;-61
2023/07/05 07:46:34;;;;;;;2.20;2.10;;;;;;;;;;5032942;28;20411;-62
2023/07/05 07:49:01;;;;;;;3.07;2.23;;;;;;;;;;5030849;28;20909;-62
2023/07/05 07:51:28;;;;;;;2.00;1.90;;;;;;;;;;5032986;28;20469;-62
2023/07/05 07:53:55;;;;;;;2.30;2.30;;;;;;;;;;5032923;28;20434;-62
2023/07/05 07:56:22;;;;;;;2.17;2.07;;;;;;;;;;5033013;28;20423;-61
2023/07/05 07:58:50;;;;;;;2.57;2.40;;;;;;;;;;5032571;28;20882;-62
2023/07/05 08:01:26;;;;;;;2.70;2.60;;;;;;;;;;5031678;28;20760;-61
2023/07/05 08:03:53;;;;;;;1.97;1.97;;;;;;;;;;5031740;28;20851;-62
2023/07/05 08:06:22;;;;;;;2.17;2.07;;;;;;;;;;5032667;28;20914;-62
2023/07/05 08:08:50;;;;;;;2.10;2.00;;;;;;;;;;5032358;28;20459;-62
2023/07/05 08:11:18;;;;;;;1.97;1.53;;;;;;;;;;5032334;28;20463;-62
2023/07/05 08:13:48;;;;;;;1.70;1.67;;;;;;;;;;5032479;28;20455;-62
2023/07/05 08:16:17;;;;;;;2.83;1.80;;;;;;;;;;5032541;28;20499;-62
2023/07/05 08:18:46;;;;;;;1.60;1.50;;;;;;;;;;5032447;28;20430;-62
2023/07/05 08:21:14;;;;;;;3.63;1.83;;;;;;;;;;5032665;28;20420;-62
2023/07/05 08:23:40;;;;;;;1.83;1.77;;;;;;;;;;5032455;28;20418;-62
2023/07/05 08:26:06;;;;;;;2.00;1.63;;;;;;;;;;5032372;28;20420;-62
2023/07/05 08:28:32;;;;;;;3.43;1.67;;;;;;;;;;5032822;28;20443;-61
2023/07/05 08:31:00;;;;;;;1.60;1.50;;;;;;;;;;5032151;28;20473;-61
2023/07/05 08:33:27;;;;;;;2.70;2.50;;;;;;;;;;5032147;28;21078;-61
2023/07/05 08:36:22;;;;;;;1.57;1.47;;;;;;;;;;5032129;28;20541;-61
2023/07/05 08:38:49;;;;;;;1.60;1.60;;;;;;;;;;5026531;28;20445;-61
2023/07/05 08:41:41;;;;;;;1.50;1.50;;;;;;;;;;5032059;28;20463;-61
2023/07/05 08:44:23;;;;;;;1.83;1.73;;;;;;;;;;5017009;28;20532;-61
2023/07/05 08:47:00;;;;;;;2.13;2.03;;;;;;;;;;5032443;28;20459;-61
2023/07/05 08:49:34;;;;;;;1.90;1.80;;;;;;;;;;5032604;28;20440;-62
2023/07/05 08:52:01;;;;;;;2.60;2.20;;;;;;;;;;5032382;28;20467;-61
2023/07/05 08:54:31;;;;;;;3.53;1.53;;;;;;;;;;5032388;28;20415;-62
2023/07/05 08:57:04;;;;;;;2.53;1.90;;;;;;;;;;5032288;28;20439;-61
2023/07/05 08:59:33;;;;;;;1.80;1.70;;;;;;;;;;5032286;28;20526;-62
2023/07/05 09:01:59;;;;;;;2.10;2.00;;;;;;;;;;5036385;28;20504;-62
2023/07/05 09:04:32;;;;;;;1.57;1.57;;;;;;;;;;5036128;28;20441;-62
2023/07/05 09:07:13;;;;;;;1.60;1.50;;;;;;;;;;5035580;28;20421;-61
2023/07/05 09:10:04;;;;;;;12.53;2.60;;;;;;;;;;5035673;28;20912;-61
2023/07/05 09:12:49;;;;;;;1.70;1.70;;;;;;;;;;5035609;28;20928;-61
2023/07/05 09:15:15;;;;;;;2.10;1.70;;;;;;;;;;5036221;28;20782;-61
2023/07/05 09:17:46;;;;;;;1.93;1.93;;;;;;;;;;5035829;28;20448;-61
2023/07/05 09:20:19;;;;;;;1.80;1.70;;;;;;;;;;5035867;28;20422;-61
2023/07/05 09:22:49;;;;;;;2.40;2.20;;;;;;;;;;5035684;28;20905;-61
2023/07/05 09:25:17;;;;;;;2.30;2.13;;;;;;;;;;5035822;28;20918;-61
2023/07/05 09:27:46;;;;;;;2.70;2.60;;;;;;;;;;5035557;28;20830;-62
2023/07/05 09:30:18;;;;;;;3.17;2.97;;;;;;;;;;5035913;28;20445;-61
2023/07/05 09:32:46;;;;;;;3.33;2.97;;;;;;;;;;5035771;28;20900;-62
2023/07/05 09:35:14;;;;;;;3.30;3.20;;;;;;;;;;5035541;28;20411;-62
2023/07/05 09:37:48;;;;;;;3.20;3.10;;;;;;;;;;5035445;28;20424;-62
2023/07/05 09:40:28;;;;;;;3.50;3.30;;;;;;;;;;5035653;28;20978;-61
2023/07/05 09:42:58;;;;;;;3.20;3.00;;;;;;;;;;5035360;28;20420;-61
2023/07/05 09:45:25;;;;;;;6.20;3.37;;;;;;;;;;5035388;28;20546;-62
2023/07/05 09:47:57;;;;;;;3.90;3.80;;;;;;;;;;5035405;28;20834;-61
2023/07/05 09:50:23;;;;;;;3.80;3.50;;;;;;;;;;5035147;28;20910;-62
2023/07/05 09:52:51;;;;;;;3.90;3.70;;;;;;;;;;5035270;28;20413;-62
2023/07/05 09:55:18;;;;;;;6.23;4.40;;;;;;;;;;5035162;28;20505;-61
2023/07/05 09:57:45;;;;;;;4.40;3.60;;;;;;;;;;5035105;28;20906;-61
2023/07/05 10:00:22;;;;;;;4.37;3.90;;;;;;;;;;5035042;28;20489;-61
2023/07/05 10:02:48;;;;;;;5.13;4.73;;;;;;;;;;5035231;28;20455;-61
2023/07/05 10:05:24;;;;;;;4.87;4.20;;;;;;;;;;5034934;28;20460;-60
2023/07/05 10:07:55;;;;;;;4.27;4.03;;;;;;;;;;5034591;28;20644;-60
2023/07/05 10:10:24;;;;;;;4.87;4.47;;;;;;;;;;5033818;28;20417;-62
2023/07/05 10:13:00;;;;;;;4.77;4.57;;;;;;;;;;5034452;28;20591;-61
2023/07/05 10:15:26;;;;;;;5.10;4.73;;;;;;;;;;5033838;28;20451;-61
2023/07/05 10:17:53;;;;;;;4.73;4.43;;;;;;;;;;5034518;28;20776;-61
2023/07/05 10:20:23;;;;;;;4.70;4.50;;;;;;;;;;5034513;28;20964;-61
2023/07/05 10:22:57;;;;;;;16.13;14.73;;;;;;;;;;5031854;28;20513;-61
2023/07/05 10:25:25;;;;;;;8.13;5.70;;;;;;;;;;5034139;28;20428;-61
2023/07/05 10:27:56;;;;;;;5.10;4.63;;;;;;;;;;5034161;28;20787;-60
2023/07/05 10:30:22;;;;;;;9.20;5.00;;;;;;;;;;5034251;28;20446;-61
2023/07/05 10:33:07;;;;;;;5.60;5.30;;;;;;;;;;5034077;28;20419;-61
2023/07/05 10:35:33;;;;;;;5.60;5.30;;;;;;;;;;5034443;28;20802;-61
2023/07/05 10:38:02;;;;;;;5.60;5.20;;;;;;;;;;5034451;28;20415;-61
2023/07/05 10:40:28;;;;;;;5.80;5.50;;;;;;;;;;5034103;28;20427;-61
2023/07/05 10:43:01;;;;;;;5.23;4.83;;;;;;;;;;5034034;28;20933;-61
2023/07/05 10:45:34;;;;;;;4.13;4.03;;;;;;;;;;5034029;28;21014;-61
2023/07/05 10:48:03;;;;;;;4.90;4.50;;;;;;;;;;5034174;28;20406;-61
2023/07/05 10:50:36;;;;;;;4.10;3.90;;;;;;;;;;5033825;28;20456;-61
2023/07/05 10:53:10;;;;;;;4.43;4.13;;;;;;;;;;5033333;28;20466;-58
2023/07/05 10:55:44;;;;;;;3.83;3.63;;;;;;;;;;5033837;28;20533;-58
2023/07/05 10:58:15;;;;;;;3.73;3.60;;;;;;;;;;5033745;28;20425;-57
2023/07/05 11:01:02;;;;;;;4.00;2.80;;;;;;;;;;5034108;28;20415;-57
2023/07/05 11:03:50;;;;;;;3.40;3.10;;;;;;;;;;5033695;28;20425;-58
2023/07/05 11:06:19;;;;;;;3.13;2.93;;;;;;;;;;5030043;28;20517;-57
2023/07/05 11:08:45;;;;;;;3.53;3.00;;;;;;;;;;5033329;28;20941;-57
2023/07/05 11:11:19;;;;;;;4.60;3.10;;;;;;;;;;5033625;28;20592;-56
2023/07/05 11:13:47;;;;;;;4.40;2.97;;;;;;;;;;5033212;28;20419;-57
2023/07/05 11:16:29;;;;;;;3.10;3.00;;;;;;;;;;5033290;28;20781;-57
2023/07/05 11:19:00;;;;;;;3.20;3.00;;;;;;;;;;5033111;28;20412;-58
2023/07/05 11:21:38;;;;;;;3.40;3.20;;;;;;;;;;5033113;28;20421;-57
2023/07/05 11:24:08;;;;;;;2.93;2.83;;;;;;;;;;5031379;28;20740;-56
2023/07/05 11:26:37;;;;;;;3.30;3.20;;;;;;;;;;5032968;28;20479;-57
2023/07/05 11:29:26;;;;;;;3.30;3.20;;;;;;;;;;5033188;28;20440;-58
2023/07/05 11:31:55;;;;;;;2.90;2.80;;;;;;;;;;5031753;28;20462;-58
2023/07/05 11:34:20;;;;;;;2.60;2.60;;;;;;;;;;5033112;28;20502;-58
2023/07/05 11:36:53;;;;;;;3.10;2.90;;;;;;;;;;5032943;28;20514;-58
2023/07/05 11:39:41;;;;;;;3.10;2.90;;;;;;;;;;5033201;28;20776;-58
2023/07/05 11:42:13;;;;;;;3.83;3.03;;;;;;;;;;5032954;28;20794;-58
2023/07/05 11:44:48;;;;;;;2.80;2.70;;;;;;;;;;5032702;28;20454;-58
2023/07/05 11:47:22;;;;;;;3.10;3.00;;;;;;;;;;5032948;28;20395;-57
2023/07/05 11:49:51;;;;;;;3.23;3.03;;;;;;;;;;5032590;28;20434;-57
2023/07/05 11:52:21;;;;;;;2.70;2.60;;;;;;;;;;5032446;28;20505;-58
2023/07/05 11:54:50;;;;;;;4.23;3.00;;;;;;;;;;5032594;28;20420;-57
2023/07/05 11:57:18;;;;;;;2.97;2.87;;;;;;;;;;5032480;28;20436;-58
2023/07/05 11:59:53;;;;;;;4.93;3.03;;;;;;;;;;5032287;28;20458;-57
2023/07/05 12:02:43;;;;;;;3.20;3.00;;;;;;;;;;5032240;28;20915;-58
2023/07/05 12:05:10;;;;;;;2.90;2.90;;;;;;;;;;5032316;28;20495;-57
2023/07/05 12:07:38;;;;;;;2.97;2.87;;;;;;;;;;5032190;28;20920;-58
2023/07/05 12:10:05;;;;;;;2.67;2.67;;;;;;;;;;5032272;28;20922;-57
2023/07/05 12:12:39;;;;;;;2.50;2.50;;;;;;;;;;5031110;28;20502;-58
2023/07/05 12:15:05;;;;;;;6.70;2.63;;;;;;;;;;5032548;28;20945;-57
2023/07/05 12:17:33;;;;;;;3.27;3.03;;;;;;;;;;5032451;28;20438;-57
2023/07/05 12:20:05;;;;;;;3.37;3.23;;;;;;;;;;5032526;28;20457;-58
2023/07/05 12:22:33;;;;;;;3.10;2.80;;;;;;;;;;5032525;28;20833;-58
2023/07/05 12:25:02;;;;;;;4.40;3.00;;;;;;;;;;5032354;28;20838;-58
2023/07/05 12:27:29;;;;;;;3.17;2.97;;;;;;;;;;5032271;28;20431;-58
2023/07/05 12:30:04;;;;;;;5.63;2.97;;;;;;;;;;5032265;28;20519;-58
2023/07/05 12:32:33;;;;;;;4.37;4.00;;;;;;;;;;5031703;28;20885;-57
2023/07/05 12:35:12;;;;;;;3.50;3.40;;;;;;;;;;5031629;28;20413;-58
2023/07/05 12:37:38;;;;;;;2.83;2.70;;;;;;;;;;5031801;28;20759;-56
2023/07/05 12:40:30;;;;;;;3.23;3.13;;;;;;;;;;5032129;28;20528;-58
2023/07/05 12:43:08;;;;;;;2.83;2.53;;;;;;;;;;5031756;28;20568;-56
2023/07/05 12:45:34;;;;;;;2.90;2.80;;;;;;;;;;5032135;28;20920;-59
2023/07/05 12:48:15;;;;;;;2.73;2.63;;;;;;;;;;5031944;28;20500;-59
2023/07/05 12:50:42;;;;;;;2.63;2.63;;;;;;;;;;5032008;28;20920;-59
2023/07/05 12:53:20;;;;;;;2.53;2.43;;;;;;;;;;5032193;28;20415;-59
2023/07/05 12:56:00;;;;;;;3.00;2.70;;;;;;;;;;5031799;28;20762;-59
2023/07/05 12:58:27;;;;;;;2.60;2.50;;;;;;;;;;5031607;28;20432;-59
2023/07/05 13:00:57;;;;;;;2.93;2.83;;;;;;;;;;5032041;28;20419;-58
2023/07/05 13:03:23;;;;;;;2.60;2.50;;;;;;;;;;5032049;28;20475;-59
2023/07/05 13:05:50;;;;;;;2.97;2.83;;;;;;;;;;5032052;28;20477;-58
2023/07/05 13:08:16;;;;;;;2.80;2.70;;;;;;;;;;5031712;28;20440;-59
2023/07/05 13:10:43;;;;;;;3.53;3.23;;;;;;;;;;5031739;28;20471;-59
2023/07/05 13:13:25;;;;;;;3.00;2.80;;;;;;;;;;5031707;28;20420;-59
2023/07/05 13:15:51;;;;;;;2.30;2.20;;;;;;;;;;5031717;28;20436;-59
2023/07/05 13:18:27;;;;;;;2.80;2.70;;;;;;;;;;5031998;28;20408;-58
2023/07/05 13:21:08;;;;;;;2.50;2.40;;;;;;;;;;5031610;28;20479;-59
2023/07/05 13:23:34;;;;;;;2.83;2.23;;;;;;;;;;5031753;28;20508;-59
2023/07/05 13:26:03;;;;;;;2.50;2.40;;;;;;;;;;5031596;28;20528;-59
2023/07/05 13:28:31;;;;;;;2.73;2.63;;;;;;;;;;5031894;28;20506;-58
2023/07/05 13:31:00;;;;;;;3.77;2.50;;;;;;;;;;5031489;28;20506;-59
2023/07/05 13:33:33;;;;;;;2.33;2.23;;;;;;;;;;5030225;28;20427;-58
2023/07/05 13:35:58;;;;;;;2.40;2.30;;;;;;;;;;5031435;28;20401;-58
2023/07/05 13:38:24;;;;;;;4.53;2.10;;;;;;;;;;5031615;28;20420;-59
2023/07/05 13:40:55;;;;;;;2.80;2.70;;;;;;;;;;5031396;28;20487;-59
2023/07/05 13:43:21;;;;;;;2.60;2.43;;;;;;;;;;5031271;28;20953;-59
2023/07/05 13:45:49;;;;;;;7.73;2.17;;;;;;;;;;5031760;28;20423;-59
2023/07/05 13:48:15;;;;;;;2.20;2.10;;;;;;;;;;5034962;28;20909;-59
2023/07/05 13:50:41;;;;;;;5.53;2.10;;;;;;;;;;5034819;28;20480;-58
2023/07/05 13:53:13;;;;;;;2.40;2.13;;;;;;;;;;5034954;28;20905;-59
2023/07/05 13:55:38;;;;;;;2.63;2.53;;;;;;;;;;5035031;28;20421;-59
2023/07/05 13:58:07;;;;;;;2.40;2.30;;;;;;;;;;5035172;28;20416;-59
2023/07/05 14:00:36;;;;;;;2.77;1.73;;;;;;;;;;5035267;28;20419;-60
2023/07/05 14:03:02;;;;;;;2.33;1.93;;;;;;;;;;5035375;28;20745;-60
2023/07/05 14:05:28;;;;;;;2.10;2.10;;;;;;;;;;5034649;28;20440;-59
2023/07/05 14:07:55;;;;;;;1.87;1.77;;;;;;;;;;5034765;28;20810;-57
2023/07/05 14:10:21;;;;;;;2.00;1.90;;;;;;;;;;5034625;28;20438;-59
2023/07/05 14:12:47;;;;;;;5.60;2.10;;;;;;;;;;5034549;28;20469;-58
2023/07/05 14:15:31;;;;;;;2.60;2.40;;;;;;;;;;5034458;28;20417;-59
2023/07/05 14:18:00;;;;;;;2.23;2.13;;;;;;;;;;5034655;28;20417;-57
2023/07/05 14:20:31;;;;;;;2.87;2.43;;;;;;;;;;5034538;28;20417;-57
2023/07/05 14:23:00;;;;;;;3.90;2.27;;;;;;;;;;5034589;28;20825;-58
2023/07/05 14:25:26;;;;;;;2.27;2.07;;;;;;;;;;5034457;28;20439;-58
2023/07/05 14:27:52;;;;;;;2.10;2.10;;;;;;;;;;5034706;28;20480;-59
2023/07/05 14:30:21;;;;;;;2.23;2.13;;;;;;;;;;5034008;28;20465;-59
2023/07/05 14:32:49;;;;;;;3.33;1.90;;;;;;;;;;5033109;28;20846;-59
2023/07/05 14:35:17;;;;;;;3.43;1.93;;;;;;;;;;5034394;28;20415;-59
2023/07/05 14:37:47;;;;;;;2.10;1.87;;;;;;;;;;5033991;28;20431;-60
2023/07/05 14:40:13;;;;;;;2.30;2.10;;;;;;;;;;5034230;28;20464;-60
2023/07/05 14:42:40;;;;;;;2.43;2.23;;;;;;;;;;5033879;28;20834;-60
2023/07/05 14:45:15;;;;;;;1.93;1.93;;;;;;;;;;5032828;28;20426;-60
2023/07/05 14:47:41;;;;;;;2.07;2.07;;;;;;;;;;5033502;28;20426;-61
2023/07/05 14:50:13;;;;;;;2.07;1.97;;;;;;;;;;5033917;28;20519;-60
2023/07/05 14:52:39;;;;;;;2.00;2.00;;;;;;;;;;5033439;28;20575;-60
2023/07/05 14:55:05;;;;;;;2.03;2.03;;;;;;;;;;5033708;28;20478;-60